Detall de PIREP

Printer-friendly versionPDF version

[2011/05/22 14:56:00]
Flight IATA:CT2104
Pilot Number:041
Company ICAO:CAT
Aircraft Type:F28/A
PAX:48
Departing Airport: LEVC
Destination Airport: LEBB
Alternate Airport:LEMD
Online: VATSIM
Route:SOPET2B/12 SOPET/N0330F320 UN609 GEMAS/N0410F310 UM601 PPN/N0290F190 G23 CEGAM
Flight Level:F330
No Slew and time accel
No pause
Crash detect
Detect pilot in Cockpit between each 30 and 45 minutes
14:56 Zero fuel Weight: 51037 Lbs, Fuel Weight: 11298 Lbs
14:56 VATSIM:LEVC 221430Z 14009KT 9999 FEW030CB 27/08 Q1020 NOSIG
14:56 VATSIM:LEBB 221430Z VRB02KT 9999 FEW018 BKN028 18/13 Q1026 NOSIG
14:56 VOICE CATALONIAN
15:03 Parking Brakes off
15:09 Take-off
15:09 Take off Weight: 61762 Lbs
15:09 Wind: 139º @ 009 Knots Heading: 116º
15:09 POS N39º 29´ 11´´ W000º 28´ 28´´
15:09 Gear Up: 183 Knots
15:09 Flaps:1 at 183 Knots
15:09 Flaps:0 at 219 Knots
15:24 Wind:205º@003 Knots Heading: 015º Ground Speed: 371 Knots Altitude 28444 ft
15:39 Wind:188º@004 Knots Heading: 296º Ground Speed: 423 Knots Altitude 32191 ft
15:54 Wind:022º@003 Knots Heading: 296º Ground Speed: 283 Knots Altitude 11145 ft
16:06 Flaps:1 at 229 Knots
16:06 Flaps:2 at 207 Knots
16:06 Gear Down: 206 Knots
16:07 Flaps:3 at 190 Knots
16:07 Flaps:4 at 177 Knots
16:07 Flaps:5 at 150 Knots
16:09 Wind:295º@002 Knots Heading: 296º Ground Speed: 129 Knots Altitude 2437 ft
16:11 TouchDown:Rate -233 ft/min Speed: 102 Knots
16:12 Flaps:0 at 21 Knots
16:12 VATSIM:LEBB 221600Z VRB02KT 9999 FEW021 BKN032 18/14 Q1026 NOSIG
16:12 Land
16:12 Wind:309º@002 Knots
16:12 Heading: 296º
16:12 Flight Duration: 01:03
16:12 Landing Weight: 57359 Lbs
16:12 POS N43º 17´ 59´´ W002º 54´ 26´´
16:13 Parking brakes on
16:13 Block to Block Duration: 01:11
16:13 Final Fuel: 6243 Lbls
16:13 Spent Fuel: 5055 Lbls
16:13 Flight Length: 337 NM
16:13 TOD Land Length: 337 NM

Exportar CSV

Powered by Drupal - Modified by Danger4k